sensor_id;sensor_type;location;lat;lon;timestamp;pressure;altitude;pressure_sealevel;temperature;humidity
69570;BME280;56781;42.292;23.146;2023-02-15T00:02:00;96786.03;;;-1.31;96.36
69570;BME280;56781;42.292;23.146;2023-02-15T00:04:27;96794.34;;;-1.28;96.71
69570;BME280;56781;42.292;23.146;2023-02-15T00:07:14;96818.94;;;-1.01;96.12
69570;BME280;56781;42.292;23.146;2023-02-15T00:09:42;96788.66;;;-0.97;95.29
69570;BME280;56781;42.292;23.146;2023-02-15T00:12:09;96802.75;;;-1.04;94.33
69570;BME280;56781;42.292;23.146;2023-02-15T00:14:37;96788.84;;;-1.33;96.13
69570;BME280;56781;42.292;23.146;2023-02-15T00:17:04;96825.38;;;-1.10;96.12
69570;BME280;56781;42.292;23.146;2023-02-15T00:19:31;96757.94;;;-1.38;95.74
69570;BME280;56781;42.292;23.146;2023-02-15T00:21:58;96788.63;;;-1.66;95.70
69570;BME280;56781;42.292;23.146;2023-02-15T00:24:26;96783.47;;;-1.53;96.92
69570;BME280;56781;42.292;23.146;2023-02-15T00:26:53;96800.28;;;-1.47;97.17
69570;BME280;56781;42.292;23.146;2023-02-15T00:29:20;96797.72;;;-1.41;96.49
69570;BME280;56781;42.292;23.146;2023-02-15T00:31:47;96798.16;;;-1.30;96.59
69570;BME280;56781;42.292;23.146;2023-02-15T00:34:21;96776.78;;;-1.27;95.81
69570;BME280;56781;42.292;23.146;2023-02-15T00:36:49;96791.34;;;-1.25;95.32
69570;BME280;56781;42.292;23.146;2023-02-15T00:39:17;96817.25;;;-1.15;94.95
69570;BME280;56781;42.292;23.146;2023-02-15T00:41:46;96796.63;;;-1.18;95.44
69570;BME280;56781;42.292;23.146;2023-02-15T00:44:13;96792.16;;;-1.24;95.14
69570;BME280;56781;42.292;23.146;2023-02-15T00:46:40;96818.88;;;-1.14;95.32
69570;BME280;56781;42.292;23.146;2023-02-15T00:49:08;96799.72;;;-1.43;95.84
69570;BME280;56781;42.292;23.146;2023-02-15T00:51:35;96816.69;;;-1.39;96.30
69570;BME280;56781;42.292;23.146;2023-02-15T00:54:02;96802.50;;;-1.51;96.27
69570;BME280;56781;42.292;23.146;2023-02-15T00:56:29;96819.84;;;-1.22;96.47
69570;BME280;56781;42.292;23.146;2023-02-15T00:58:56;96828.41;;;-1.06;95.63
69570;BME280;56781;42.292;23.146;2023-02-15T01:01:23;96792.59;;;-1.14;95.01
69570;BME280;56781;42.292;23.146;2023-02-15T01:03:52;96795.63;;;-1.17;95.24
69570;BME280;56781;42.292;23.146;2023-02-15T01:06:19;96778.22;;;-1.25;95.49
69570;BME280;56781;42.292;23.146;2023-02-15T01:08:47;96791.13;;;-1.23;95.33
69570;BME280;56781;42.292;23.146;2023-02-15T01:11:17;96772.19;;;-1.53;93.98
69570;BME280;56781;42.292;23.146;2023-02-15T01:13:52;96777.19;;;-1.59;94.52
69570;BME280;56781;42.292;23.146;2023-02-15T01:16:20;96794.69;;;-1.66;95.52
69570;BME280;56781;42.292;23.146;2023-02-15T01:18:47;96767.34;;;-2.06;96.68
69570;BME280;56781;42.292;23.146;2023-02-15T01:21:17;96765.13;;;-2.52;97.34
69570;BME280;56781;42.292;23.146;2023-02-15T01:23:45;96761.75;;;-2.82;98.70
69570;BME280;56781;42.292;23.146;2023-02-15T01:26:13;96777.34;;;-2.96;100.00
69570;BME280;56781;42.292;23.146;2023-02-15T01:28:41;96788.34;;;-3.00;100.00
69570;BME280;56781;42.292;23.146;2023-02-15T01:31:16;96775.25;;;-3.15;100.00
69570;BME280;56781;42.292;23.146;2023-02-15T01:33:44;96796.84;;;-2.98;100.00
69570;BME280;56781;42.292;23.146;2023-02-15T01:36:12;96788.28;;;-3.22;100.00
69570;BME280;56781;42.292;23.146;2023-02-15T01:42:02;96788.47;;;-3.38;100.00
69570;BME280;56781;42.292;23.146;2023-02-15T01:44:51;96772.66;;;-3.30;100.00
69570;BME280;56781;42.292;23.146;2023-02-15T01:47:23;96798.38;;;-3.19;100.00
69570;BME280;56781;42.292;23.146;2023-02-15T01:50:00;96790.81;;;-3.14;100.00
69570;BME280;56781;42.292;23.146;2023-02-15T01:52:29;96784.41;;;-3.55;99.30
69570;BME280;56781;42.292;23.146;2023-02-15T01:54:56;96783.03;;;-3.37;100.00
69570;BME280;56781;42.292;23.146;2023-02-15T01:57:25;96818.72;;;-3.36;99.68
69570;BME280;56781;42.292;23.146;2023-02-15T01:59:58;96804.28;;;-3.17;100.00
69570;BME280;56781;42.292;23.146;2023-02-15T02:02:28;96778.63;;;-3.66;99.75
69570;BME280;56781;42.292;23.146;2023-02-15T02:05:01;96824.50;;;-3.25;100.00
69570;BME280;56781;42.292;23.146;2023-02-15T02:07:36;96784.53;;;-2.83;100.00
69570;BME280;56781;42.292;23.146;2023-02-15T02:10:07;96777.88;;;-2.64;99.72
69570;BME280;56781;42.292;23.146;2023-02-15T02:12:35;96783.06;;;-2.71;99.62
69570;BME280;56781;42.292;23.146;2023-02-15T02:15:06;96777.78;;;-3.07;97.83
69570;BME280;56781;42.292;23.146;2023-02-15T02:17:46;96786.19;;;-2.97;99.13
69570;BME280;56781;42.292;23.146;2023-02-15T02:20:51;96810.72;;;-2.68;99.08
69570;BME280;56781;42.292;23.146;2023-02-15T02:23:30;96804.13;;;-2.79;99.15
69570;BME280;56781;42.292;23.146;2023-02-15T02:36:58;96820.06;;;-2.95;97.68
69570;BME280;56781;42.292;23.146;2023-02-15T02:44:47;96780.53;;;-3.30;99.63
69570;BME280;56781;42.292;23.146;2023-02-15T02:47:24;96793.88;;;-3.10;99.39
69570;BME280;56781;42.292;23.146;2023-02-15T02:50:00;96801.44;;;-3.00;99.01
69570;BME280;56781;42.292;23.146;2023-02-15T02:52:51;96806.69;;;-3.30;98.37
69570;BME280;56781;42.292;23.146;2023-02-15T02:55:39;96797.94;;;-3.22;99.31
69570;BME280;56781;42.292;23.146;2023-02-15T03:00:41;96802.72;;;-3.26;99.22
69570;BME280;56781;42.292;23.146;2023-02-15T03:03:38;96813.81;;;-3.24;99.26
69570;BME280;56781;42.292;23.146;2023-02-15T03:06:19;96829.81;;;-3.19;98.89
69570;BME280;56781;42.292;23.146;2023-02-15T03:09:01;96809.78;;;-3.12;99.46
69570;BME280;56781;42.292;23.146;2023-02-15T03:11:30;96798.94;;;-3.08;99.37
69570;BME280;56781;42.292;23.146;2023-02-15T03:13:58;96802.69;;;-2.96;98.78
69570;BME280;56781;42.292;23.146;2023-02-15T03:16:26;96802.63;;;-3.03;98.71
69570;BME280;56781;42.292;23.146;2023-02-15T03:19:00;96814.00;;;-3.10;98.01
69570;BME280;56781;42.292;23.146;2023-02-15T03:21:50;96827.94;;;-3.25;98.69
69570;BME280;56781;42.292;23.146;2023-02-15T03:24:28;96813.63;;;-3.37;99.36
69570;BME280;56781;42.292;23.146;2023-02-15T03:26:59;96821.56;;;-3.45;99.65
69570;BME280;56781;42.292;23.146;2023-02-15T03:29:30;96827.38;;;-3.50;98.34
69570;BME280;56781;42.292;23.146;2023-02-15T03:32:00;96844.59;;;-3.55;98.82
69570;BME280;56781;42.292;23.146;2023-02-15T03:34:30;96840.41;;;-3.80;99.71
69570;BME280;56781;42.292;23.146;2023-02-15T03:37:10;96829.28;;;-4.05;100.00
69570;BME280;56781;42.292;23.146;2023-02-15T03:40:43;96842.94;;;-3.94;100.00
69570;BME280;56781;42.292;23.146;2023-02-15T03:43:31;96844.19;;;-3.82;100.00
69570;BME280;56781;42.292;23.146;2023-02-15T03:46:02;96829.59;;;-3.99;100.00
69570;BME280;56781;42.292;23.146;2023-02-15T03:48:36;96785.03;;;-4.29;100.00
69570;BME280;56781;42.292;23.146;2023-02-15T03:51:08;96819.59;;;-4.19;100.00
69570;BME280;56781;42.292;23.146;2023-02-15T03:53:55;96850.22;;;-4.05;100.00
69570;BME280;56781;42.292;23.146;2023-02-15T03:56:24;96813.28;;;-4.25;100.00
69570;BME280;56781;42.292;23.146;2023-02-15T03:58:51;96839.00;;;-4.13;100.00
69570;BME280;56781;42.292;23.146;2023-02-15T04:02:10;96824.84;;;-3.96;100.00
69570;BME280;56781;42.292;23.146;2023-02-15T04:04:45;96851.31;;;-3.61;100.00
69570;BME280;56781;42.292;23.146;2023-02-15T04:07:13;96807.63;;;-3.75;100.00
69570;BME280;56781;42.292;23.146;2023-02-15T04:09:40;96806.13;;;-3.70;100.00
69570;BME280;56781;42.292;23.146;2023-02-15T04:12:26;96817.53;;;-3.86;100.00
69570;BME280;56781;42.292;23.146;2023-02-15T04:14:53;96817.00;;;-3.96;100.00
69570;BME280;56781;42.292;23.146;2023-02-15T04:17:38;96825.34;;;-4.01;100.00
69570;BME280;56781;42.292;23.146;2023-02-15T04:20:06;96834.69;;;-3.83;100.00
69570;BME280;56781;42.292;23.146;2023-02-15T04:22:52;96815.84;;;-3.93;100.00
69570;BME280;56781;42.292;23.146;2023-02-15T04:25:37;96810.81;;;-4.03;100.00
69570;BME280;56781;42.292;23.146;2023-02-15T04:28:04;96828.06;;;-3.56;100.00
69570;BME280;56781;42.292;23.146;2023-02-15T04:30:34;96829.22;;;-3.59;100.00
69570;BME280;56781;42.292;23.146;2023-02-15T04:33:01;96853.25;;;-3.55;100.00
69570;BME280;56781;42.292;23.146;2023-02-15T04:35:28;96879.44;;;-3.40;100.00
69570;BME280;56781;42.292;23.146;2023-02-15T04:37:55;96875.94;;;-3.47;100.00
69570;BME280;56781;42.292;23.146;2023-02-15T04:40:22;96843.09;;;-3.73;100.00
69570;BME280;56781;42.292;23.146;2023-02-15T04:42:49;96858.00;;;-3.59;100.00
69570;BME280;56781;42.292;23.146;2023-02-15T04:45:17;96863.31;;;-3.67;100.00
69570;BME280;56781;42.292;23.146;2023-02-15T04:47:44;96863.28;;;-3.44;100.00
69570;BME280;56781;42.292;23.146;2023-02-15T04:50:11;96866.31;;;-3.02;100.00
69570;BME280;56781;42.292;23.146;2023-02-15T04:52:38;96877.88;;;-3.12;99.86
69570;BME280;56781;42.292;23.146;2023-02-15T04:55:06;96892.84;;;-3.05;99.85
69570;BME280;56781;42.292;23.146;2023-02-15T04:57:33;96901.34;;;-3.03;100.00
69570;BME280;56781;42.292;23.146;2023-02-15T05:00:00;96878.66;;;-3.26;100.00
69570;BME280;56781;42.292;23.146;2023-02-15T05:02:28;96872.88;;;-3.36;100.00
69570;BME280;56781;42.292;23.146;2023-02-15T05:04:55;96882.88;;;-3.40;100.00
69570;BME280;56781;42.292;23.146;2023-02-15T05:07:22;96868.16;;;-3.41;100.00
69570;BME280;56781;42.292;23.146;2023-02-15T05:09:49;96893.03;;;-3.22;100.00
69570;BME280;56781;42.292;23.146;2023-02-15T05:12:16;96882.44;;;-3.28;99.84
69570;BME280;56781;42.292;23.146;2023-02-15T05:14:43;96885.69;;;-3.26;100.00
69570;BME280;56781;42.292;23.146;2023-02-15T05:17:10;96888.16;;;-3.25;100.00
69570;BME280;56781;42.292;23.146;2023-02-15T05:19:38;96889.31;;;-3.13;99.37
69570;BME280;56781;42.292;23.146;2023-02-15T05:22:05;96896.81;;;-3.09;98.98
69570;BME280;56781;42.292;23.146;2023-02-15T05:24:32;96889.50;;;-3.14;99.13
69570;BME280;56781;42.292;23.146;2023-02-15T05:27:17;96932.91;;;-2.82;99.41
69570;BME280;56781;42.292;23.146;2023-02-15T05:30:03;96944.81;;;-2.79;99.32
69570;BME280;56781;42.292;23.146;2023-02-15T05:32:30;96937.94;;;-2.95;99.88
69570;BME280;56781;42.292;23.146;2023-02-15T05:34:58;96945.34;;;-2.84;99.64
69570;BME280;56781;42.292;23.146;2023-02-15T05:37:25;96944.09;;;-2.73;99.85
69570;BME280;56781;42.292;23.146;2023-02-15T05:39:52;96921.25;;;-2.79;99.36
69570;BME280;56781;42.292;23.146;2023-02-15T05:42:19;96915.44;;;-2.75;99.75
69570;BME280;56781;42.292;23.146;2023-02-15T05:44:46;96927.47;;;-2.65;100.00
69570;BME280;56781;42.292;23.146;2023-02-15T05:47:13;96921.22;;;-2.64;99.49
69570;BME280;56781;42.292;23.146;2023-02-15T05:49:40;96940.66;;;-2.44;99.54
69570;BME280;56781;42.292;23.146;2023-02-15T05:52:07;96911.00;;;-2.59;99.60
69570;BME280;56781;42.292;23.146;2023-02-15T05:54:34;96931.25;;;-2.53;100.00
69570;BME280;56781;42.292;23.146;2023-02-15T05:57:02;96924.19;;;-2.53;100.00
69570;BME280;56781;42.292;23.146;2023-02-15T05:59:29;96946.94;;;-2.24;99.82
69570;BME280;56781;42.292;23.146;2023-02-15T06:01:56;96924.72;;;-2.42;99.47
69570;BME280;56781;42.292;23.146;2023-02-15T06:04:23;96952.81;;;-2.21;99.97
69570;BME280;56781;42.292;23.146;2023-02-15T06:06:50;96920.44;;;-2.29;99.64
69570;BME280;56781;42.292;23.146;2023-02-15T06:09:17;96920.59;;;-2.15;98.52
69570;BME280;56781;42.292;23.146;2023-02-15T06:11:46;96911.38;;;-2.11;98.16
69570;BME280;56781;42.292;23.146;2023-02-15T06:14:13;96949.22;;;-1.84;97.82
69570;BME280;56781;42.292;23.146;2023-02-15T06:16:40;96940.88;;;-1.88;97.63
69570;BME280;56781;42.292;23.146;2023-02-15T06:19:07;96939.19;;;-1.74;97.40
69570;BME280;56781;42.292;23.146;2023-02-15T06:21:34;96915.66;;;-1.67;96.23
69570;BME280;56781;42.292;23.146;2023-02-15T06:24:01;96919.97;;;-1.60;96.05
69570;BME280;56781;42.292;23.146;2023-02-15T06:26:29;96921.31;;;-1.42;95.85
69570;BME280;56781;42.292;23.146;2023-02-15T06:28:56;96916.06;;;-1.42;95.35
69570;BME280;56781;42.292;23.146;2023-02-15T06:31:23;96918.78;;;-1.36;95.15
69570;BME280;56781;42.292;23.146;2023-02-15T06:33:50;96936.78;;;-1.32;95.63
69570;BME280;56781;42.292;23.146;2023-02-15T06:36:17;96948.53;;;-1.00;94.66
69570;BME280;56781;42.292;23.146;2023-02-15T06:38:45;96913.31;;;-1.06;93.83
69570;BME280;56781;42.292;23.146;2023-02-15T06:41:12;96911.59;;;-0.92;93.33
69570;BME280;56781;42.292;23.146;2023-02-15T06:43:39;96925.88;;;-0.73;93.32
69570;BME280;56781;42.292;23.146;2023-02-15T06:46:06;96959.94;;;-0.52;93.38
69570;BME280;56781;42.292;23.146;2023-02-15T06:48:33;96953.94;;;-0.46;93.24
69570;BME280;56781;42.292;23.146;2023-02-15T06:51:00;96947.66;;;-0.45;92.73
69570;BME280;56781;42.292;23.146;2023-02-15T06:53:28;96956.06;;;-0.21;92.37
69570;BME280;56781;42.292;23.146;2023-02-15T06:56:06;96926.91;;;-0.26;92.01
69570;BME280;56781;42.292;23.146;2023-02-15T06:58:37;96939.91;;;-0.18;91.49
69570;BME280;56781;42.292;23.146;2023-02-15T07:01:05;96946.19;;;-0.19;90.73
69570;BME280;56781;42.292;23.146;2023-02-15T07:03:32;96921.13;;;-0.50;93.96
69570;BME280;56781;42.292;23.146;2023-02-15T07:06:02;96924.09;;;-0.18;93.58
69570;BME280;56781;42.292;23.146;2023-02-15T07:08:30;96907.56;;;0.02;92.48
69570;BME280;56781;42.292;23.146;2023-02-15T07:10:57;96946.97;;;0.56;90.80
69570;BME280;56781;42.292;23.146;2023-02-15T07:13:47;96949.84;;;0.68;90.07
69570;BME280;56781;42.292;23.146;2023-02-15T07:16:14;96941.13;;;0.74;89.33
69570;BME280;56781;42.292;23.146;2023-02-15T07:18:41;96916.38;;;0.62;88.36
69570;BME280;56781;42.292;23.146;2023-02-15T07:21:08;96916.56;;;0.80;87.58
69570;BME280;56781;42.292;23.146;2023-02-15T07:23:36;96921.44;;;0.90;86.89
69570;BME280;56781;42.292;23.146;2023-02-15T07:26:05;96901.16;;;0.91;86.74
69570;BME280;56781;42.292;23.146;2023-02-15T07:28:34;96897.50;;;0.92;87.20
69570;BME280;56781;42.292;23.146;2023-02-15T07:31:05;96917.53;;;1.32;86.96
69570;BME280;56781;42.292;23.146;2023-02-15T07:33:33;96918.06;;;1.61;86.41
69570;BME280;56781;42.292;23.146;2023-02-15T07:36:03;96929.13;;;1.90;85.96
69570;BME280;56781;42.292;23.146;2023-02-15T07:38:33;96909.44;;;1.86;85.11
69570;BME280;56781;42.292;23.146;2023-02-15T07:41:03;96918.03;;;1.68;85.04
69570;BME280;56781;42.292;23.146;2023-02-15T07:43:36;96911.56;;;1.64;85.31
69570;BME280;56781;42.292;23.146;2023-02-15T07:46:06;96907.88;;;1.71;84.18
69570;BME280;56781;42.292;23.146;2023-02-15T07:48:37;96940.13;;;2.25;83.76
69570;BME280;56781;42.292;23.146;2023-02-15T07:51:06;96922.78;;;2.04;83.27
69570;BME280;56781;42.292;23.146;2023-02-15T07:53:35;96907.22;;;2.21;82.58
69570;BME280;56781;42.292;23.146;2023-02-15T07:56:05;96914.09;;;2.29;82.61
69570;BME280;56781;42.292;23.146;2023-02-15T07:58:33;96908.56;;;2.37;81.98
69570;BME280;56781;42.292;23.146;2023-02-15T08:01:21;96903.63;;;2.47;80.95
69570;BME280;56781;42.292;23.146;2023-02-15T08:03:49;96895.25;;;2.50;81.57
69570;BME280;56781;42.292;23.146;2023-02-15T08:06:16;96909.41;;;2.62;81.72
69570;BME280;56781;42.292;23.146;2023-02-15T08:08:43;96911.69;;;2.52;82.39
69570;BME280;56781;42.292;23.146;2023-02-15T08:11:24;96915.44;;;2.70;82.15
69570;BME280;56781;42.292;23.146;2023-02-15T08:14:10;96921.28;;;3.03;80.06
69570;BME280;56781;42.292;23.146;2023-02-15T08:16:39;96896.34;;;3.18;79.46
69570;BME280;56781;42.292;23.146;2023-02-15T08:19:15;96881.94;;;3.32;78.52
69570;BME280;56781;42.292;23.146;2023-02-15T08:21:45;96924.56;;;3.79;77.89
69570;BME280;56781;42.292;23.146;2023-02-15T08:24:15;96889.59;;;3.59;77.81
69570;BME280;56781;42.292;23.146;2023-02-15T08:26:42;96931.31;;;3.93;77.58
69570;BME280;56781;42.292;23.146;2023-02-15T08:29:11;96897.34;;;3.90;75.49
69570;BME280;56781;42.292;23.146;2023-02-15T08:31:39;96900.09;;;3.84;75.13
69570;BME280;56781;42.292;23.146;2023-02-15T08:34:10;96924.53;;;4.16;75.69
69570;BME280;56781;42.292;23.146;2023-02-15T08:36:38;96879.69;;;4.14;75.04
69570;BME280;56781;42.292;23.146;2023-02-15T08:39:06;96909.56;;;4.52;74.65
69570;BME280;56781;42.292;23.146;2023-02-15T08:41:35;96896.59;;;4.32;74.23
69570;BME280;56781;42.292;23.146;2023-02-15T08:44:05;96897.41;;;4.02;74.79
69570;BME280;56781;42.292;23.146;2023-02-15T08:46:35;96878.00;;;3.90;74.80
69570;BME280;56781;42.292;23.146;2023-02-15T08:49:03;96877.66;;;3.49;75.44
69570;BME280;56781;42.292;23.146;2023-02-15T08:51:33;96897.78;;;3.69;76.21
69570;BME280;56781;42.292;23.146;2023-02-15T08:54:03;96897.44;;;3.65;75.66
69570;BME280;56781;42.292;23.146;2023-02-15T08:56:36;96917.97;;;3.88;76.22
69570;BME280;56781;42.292;23.146;2023-02-15T08:59:06;96890.16;;;3.61;75.74
69570;BME280;56781;42.292;23.146;2023-02-15T09:01:34;96884.84;;;3.79;75.68
69570;BME280;56781;42.292;23.146;2023-02-15T09:04:05;96909.47;;;3.98;75.17
69570;BME280;56781;42.292;23.146;2023-02-15T09:06:36;96880.78;;;3.95;74.32
69570;BME280;56781;42.292;23.146;2023-02-15T09:09:04;96884.94;;;4.21;73.72
69570;BME280;56781;42.292;23.146;2023-02-15T09:11:36;96915.06;;;4.38;72.37
69570;BME280;56781;42.292;23.146;2023-02-15T09:14:06;96890.47;;;4.31;73.71
69570;BME280;56781;42.292;23.146;2023-02-15T09:16:37;96887.50;;;4.39;72.67
69570;BME280;56781;42.292;23.146;2023-02-15T09:19:05;96885.69;;;4.40;71.82
69570;BME280;56781;42.292;23.146;2023-02-15T09:21:33;96909.09;;;4.55;72.32
69570;BME280;56781;42.292;23.146;2023-02-15T09:24:05;96916.00;;;4.56;73.01
69570;BME280;56781;42.292;23.146;2023-02-15T09:26:35;96877.28;;;4.55;72.92
69570;BME280;56781;42.292;23.146;2023-02-15T09:29:03;96916.59;;;4.46;72.94
69570;BME280;56781;42.292;23.146;2023-02-15T09:31:37;96907.56;;;4.35;73.10
69570;BME280;56781;42.292;23.146;2023-02-15T09:34:04;96880.63;;;4.08;73.16
69570;BME280;56781;42.292;23.146;2023-02-15T09:36:35;96913.59;;;4.42;73.02
69570;BME280;56781;42.292;23.146;2023-02-15T09:39:20;96882.66;;;4.36;73.26
69570;BME280;56781;42.292;23.146;2023-02-15T09:53:08;96870.50;;;4.59;72.17
69570;BME280;56781;42.292;23.146;2023-02-15T10:01:45;96859.16;;;4.10;71.35
69570;BME280;56781;42.292;23.146;2023-02-15T10:04:44;96896.97;;;4.47;71.28
69570;BME280;56781;42.292;23.146;2023-02-15T10:16:24;96860.50;;;5.20;67.70
69570;BME280;56781;42.292;23.146;2023-02-15T10:22:00;96888.06;;;5.07;69.16
69570;BME280;56781;42.292;23.146;2023-02-15T10:27:21;96886.94;;;5.03;68.17
69570;BME280;56781;42.292;23.146;2023-02-15T10:30:11;96877.69;;;5.17;69.51
69570;BME280;56781;42.292;23.146;2023-02-15T10:32:53;96844.13;;;5.63;70.82
69570;BME280;56781;42.292;23.146;2023-02-15T10:43:52;96843.16;;;5.29;68.10
69570;BME280;56781;42.292;23.146;2023-02-15T10:49:31;96829.06;;;5.81;67.21
69570;BME280;56781;42.292;23.146;2023-02-15T10:52:29;96849.50;;;6.20;67.18
69570;BME280;56781;42.292;23.146;2023-02-15T10:58:15;96847.91;;;5.79;65.90
69570;BME280;56781;42.292;23.146;2023-02-15T11:00:48;96837.25;;;6.19;64.77
69570;BME280;56781;42.292;23.146;2023-02-15T11:03:50;96833.41;;;6.27;65.12
69570;BME280;56781;42.292;23.146;2023-02-15T11:06:22;96809.00;;;6.30;64.35
69570;BME280;56781;42.292;23.146;2023-02-15T11:09:10;96822.97;;;6.09;64.39
69570;BME280;56781;42.292;23.146;2023-02-15T11:11:41;96813.34;;;6.36;65.99
69570;BME280;56781;42.292;23.146;2023-02-15T11:14:21;96789.53;;;6.13;66.15
69570;BME280;56781;42.292;23.146;2023-02-15T11:16:53;96832.84;;;6.76;65.51
69570;BME280;56781;42.292;23.146;2023-02-15T11:19:26;96827.16;;;7.23;63.03
69570;BME280;56781;42.292;23.146;2023-02-15T11:21:59;96796.38;;;6.93;61.83
69570;BME280;56781;42.292;23.146;2023-02-15T11:24:30;96813.06;;;7.05;63.04
69570;BME280;56781;42.292;23.146;2023-02-15T11:27:02;96821.13;;;7.10;63.73
69570;BME280;56781;42.292;23.146;2023-02-15T11:29:40;96820.09;;;6.95;61.22
69570;BME280;56781;42.292;23.146;2023-02-15T11:32:31;96812.84;;;7.29;59.58
69570;BME280;56781;42.292;23.146;2023-02-15T11:35:10;96788.47;;;6.98;60.18
69570;BME280;56781;42.292;23.146;2023-02-15T11:37:51;96778.22;;;7.07;60.35
69570;BME280;56781;42.292;23.146;2023-02-15T11:40:26;96791.56;;;6.90;58.91
69570;BME280;56781;42.292;23.146;2023-02-15T11:43:00;96770.16;;;7.46;59.37
69570;BME280;56781;42.292;23.146;2023-02-15T11:45:30;96768.97;;;7.59;59.91
69570;BME280;56781;42.292;23.146;2023-02-15T11:47:59;96759.88;;;7.54;60.96
69570;BME280;56781;42.292;23.146;2023-02-15T11:50:31;96765.88;;;7.67;59.80
69570;BME280;56781;42.292;23.146;2023-02-15T11:53:06;96752.28;;;7.41;59.95
69570;BME280;56781;42.292;23.146;2023-02-15T11:55:34;96765.97;;;7.50;59.33
69570;BME280;56781;42.292;23.146;2023-02-15T12:01:01;96742.97;;;7.22;58.58
69570;BME280;56781;42.292;23.146;2023-02-15T12:03:42;96755.44;;;7.87;56.60
69570;BME280;56781;42.292;23.146;2023-02-15T12:06:33;96771.09;;;7.84;57.21
69570;BME280;56781;42.292;23.146;2023-02-15T12:09:13;96740.28;;;7.93;58.06
69570;BME280;56781;42.292;23.146;2023-02-15T12:11:48;96740.06;;;7.23;57.71
69570;BME280;56781;42.292;23.146;2023-02-15T12:14:16;96763.25;;;7.72;58.32
69570;BME280;56781;42.292;23.146;2023-02-15T12:16:53;96737.69;;;7.49;56.82
69570;BME280;56781;42.292;23.146;2023-02-15T12:19:29;96723.19;;;8.21;57.32
69570;BME280;56781;42.292;23.146;2023-02-15T12:21:58;96718.94;;;8.20;55.85
69570;BME280;56781;42.292;23.146;2023-02-15T12:24:32;96719.81;;;7.98;56.05
69570;BME280;56781;42.292;23.146;2023-02-15T12:29:46;96712.38;;;8.06;55.98
69570;BME280;56781;42.292;23.146;2023-02-15T12:32:22;96738.06;;;8.17;55.37
69570;BME280;56781;42.292;23.146;2023-02-15T12:34:52;96708.69;;;8.07;54.57
69570;BME280;56781;42.292;23.146;2023-02-15T12:37:31;96712.84;;;7.97;54.39
69570;BME280;56781;42.292;23.146;2023-02-15T12:40:19;96713.16;;;8.01;54.28
69570;BME280;56781;42.292;23.146;2023-02-15T12:42:47;96700.59;;;7.96;54.69
69570;BME280;56781;42.292;23.146;2023-02-15T12:45:25;96690.16;;;7.90;54.81
69570;BME280;56781;42.292;23.146;2023-02-15T12:50:40;96705.13;;;7.96;54.33
69570;BME280;56781;42.292;23.146;2023-02-15T12:53:17;96705.47;;;7.77;54.00
69570;BME280;56781;42.292;23.146;2023-02-15T12:56:00;96689.94;;;7.69;53.97
69570;BME280;56781;42.292;23.146;2023-02-15T12:58:29;96670.16;;;7.65;53.25
69570;BME280;56781;42.292;23.146;2023-02-15T13:01:10;96705.22;;;8.06;53.09
69570;BME280;56781;42.292;23.146;2023-02-15T13:04:01;96697.44;;;8.05;53.13
69570;BME280;56781;42.292;23.146;2023-02-15T13:06:32;96692.38;;;7.71;53.69
69570;BME280;56781;42.292;23.146;2023-02-15T13:09:24;96697.81;;;8.18;54.08
69570;BME280;56781;42.292;23.146;2023-02-15T13:11:52;96673.22;;;8.06;53.33
69570;BME280;56781;42.292;23.146;2023-02-15T13:14:25;96676.91;;;7.73;53.36
69570;BME280;56781;42.292;23.146;2023-02-15T13:16:58;96673.88;;;7.91;52.63
69570;BME280;56781;42.292;23.146;2023-02-15T13:19:40;96659.59;;;8.08;53.29
69570;BME280;56781;42.292;23.146;2023-02-15T13:22:14;96648.06;;;7.97;53.27
69570;BME280;56781;42.292;23.146;2023-02-15T13:24:59;96699.22;;;8.26;50.86
69570;BME280;56781;42.292;23.146;2023-02-15T13:27:39;96693.66;;;8.33;51.04
69570;BME280;56781;42.292;23.146;2023-02-15T13:30:21;96683.09;;;8.11;51.84
69570;BME280;56781;42.292;23.146;2023-02-15T13:32:54;96665.09;;;8.28;50.29
69570;BME280;56781;42.292;23.146;2023-02-15T13:35:23;96666.81;;;8.39;50.54
69570;BME280;56781;42.292;23.146;2023-02-15T13:40:51;96692.91;;;8.37;50.26
69570;BME280;56781;42.292;23.146;2023-02-15T13:46:38;96664.81;;;8.30;51.02
69570;BME280;56781;42.292;23.146;2023-02-15T14:08:34;96680.44;;;8.11;52.46
69570;BME280;56781;42.292;23.146;2023-02-15T14:14:01;96672.66;;;7.72;54.70
69570;BME280;56781;42.292;23.146;2023-02-15T14:16:55;96679.13;;;7.81;54.56
69570;BME280;56781;42.292;23.146;2023-02-15T14:19:49;96674.56;;;7.76;55.88
69570;BME280;56781;42.292;23.146;2023-02-15T14:23:13;96711.25;;;7.69;56.05
69570;BME280;56781;42.292;23.146;2023-02-15T14:25:41;96682.63;;;7.54;55.57
69570;BME280;56781;42.292;23.146;2023-02-15T14:30:50;96686.81;;;7.50;56.75
69570;BME280;56781;42.292;23.146;2023-02-15T14:35:48;96694.16;;;7.38;55.75
69570;BME280;56781;42.292;23.146;2023-02-15T14:38:32;96700.09;;;7.45;57.15
69570;BME280;56781;42.292;23.146;2023-02-15T14:46:38;96706.44;;;7.39;56.75
69570;BME280;56781;42.292;23.146;2023-02-15T14:49:32;96698.09;;;7.30;58.53
69570;BME280;56781;42.292;23.146;2023-02-15T14:52:09;96698.25;;;7.24;58.33
69570;BME280;56781;42.292;23.146;2023-02-15T15:02:24;96689.91;;;6.93;59.71
69570;BME280;56781;42.292;23.146;2023-02-15T15:05:02;96709.19;;;7.00;60.40
69570;BME280;56781;42.292;23.146;2023-02-15T15:12:47;96701.84;;;6.69;60.83
69570;BME280;56781;42.292;23.146;2023-02-15T15:18:07;96680.22;;;6.26;62.50
69570;BME280;56781;42.292;23.146;2023-02-15T15:20:46;96696.25;;;6.31;62.15
69570;BME280;56781;42.292;23.146;2023-02-15T15:25:57;96694.00;;;6.23;62.65
69570;BME280;56781;42.292;23.146;2023-02-15T15:31:42;96694.91;;;5.83;64.57
69570;BME280;56781;42.292;23.146;2023-02-15T15:37:46;96675.06;;;5.40;65.36
69570;BME280;56781;42.292;23.146;2023-02-15T15:43:04;96713.44;;;5.21;66.96
69570;BME280;56781;42.292;23.146;2023-02-15T15:48:36;96726.31;;;4.88;68.54
69570;BME280;56781;42.292;23.146;2023-02-15T15:51:27;96712.53;;;4.63;69.26